Time;durP1;ratioP1;P1;durP2;ratioP2;P2;SDS_P1;SDS_P2;PMS_P1;PMS_P2;Temp;Humidity;BMP_temperature;BMP_pressure;BME280_temperature;BME280_humidity;BME280_pressure;Samples;Min_cycle;Max_cycle;Signal;HPM_P1;HPM_P2
2024/04/09 00:01:08;;;;;;;9.82;2.88;;;20.30;92.90;;;;;;5452194;26;20331;-45
2024/04/09 00:03:37;;;;;;;13.63;2.80;;;20.30;92.90;;;;;;5452612;26;20083;-41
2024/04/09 00:06:14;;;;;;;13.82;3.50;;;20.30;92.90;;;;;;5452402;26;20024;-42
2024/04/09 00:08:45;;;;;;;10.20;3.17;;;20.30;92.90;;;;;;5452629;26;19994;-40
2024/04/09 00:11:21;;;;;;;9.98;2.38;;;20.30;92.90;;;;;;5452488;26;20381;-40
2024/04/09 00:13:52;;;;;;;13.55;2.80;;;20.30;92.80;;;;;;5452564;26;19995;-42
2024/04/09 00:16:25;;;;;;;8.63;2.60;;;20.30;92.80;;;;;;5452779;26;19998;-41
2024/04/09 00:18:53;;;;;;;7.82;2.72;;;20.30;92.80;;;;;;5452481;26;19999;-44
2024/04/09 00:21:23;;;;;;;8.82;2.80;;;20.30;92.80;;;;;;5452346;26;20040;-41
2024/04/09 00:23:49;;;;;;;9.45;2.22;;;20.30;92.90;;;;;;5452530;26;20036;-42
2024/04/09 00:26:16;;;;;;;11.55;3.10;;;20.30;92.90;;;;;;5452109;26;19999;-42
2024/04/09 00:28:42;;;;;;;10.63;2.25;;;20.30;92.90;;;;;;5452294;26;19995;-45
2024/04/09 00:31:07;;;;;;;10.43;2.60;;;20.30;92.90;;;;;;5452316;26;20010;-40
2024/04/09 00:33:33;;;;;;;16.50;2.83;;;20.30;92.90;;;;;;5452419;26;19999;-42
2024/04/09 00:35:58;;;;;;;8.65;2.67;;;20.30;92.90;;;;;;5452518;26;20006;-43
2024/04/09 00:38:27;;;;;;;12.20;3.42;;;20.30;92.90;;;;;;5452433;26;19994;-43
2024/04/09 00:40:53;;;;;;;9.35;2.63;;;20.30;92.90;;;;;;5452313;26;20013;-44
2024/04/09 00:43:19;;;;;;;9.38;2.58;;;20.30;92.90;;;;;;5452298;26;19995;-41
2024/04/09 00:45:47;;;;;;;14.32;3.28;;;20.30;92.90;;;;;;5452206;26;19995;-43
2024/04/09 00:48:13;;;;;;;14.80;2.90;;;20.30;92.90;;;;;;5452010;26;19995;-44
2024/04/09 00:50:42;;;;;;;10.32;2.50;;;20.20;92.80;;;;;;5451881;26;20470;-44
2024/04/09 00:53:11;;;;;;;9.35;2.47;;;20.30;92.90;;;;;;5451862;26;20356;-42
2024/04/09 00:55:42;;;;;;;11.45;2.78;;;20.30;92.90;;;;;;5451977;26;20072;-44
2024/04/09 00:58:11;;;;;;;9.52;2.92;;;20.30;92.90;;;;;;5452002;26;19999;-44
2024/04/09 01:00:40;;;;;;;11.27;2.90;;;20.30;92.90;;;;;;5451746;26;20067;-41
2024/04/09 01:03:09;;;;;;;11.57;2.75;;;20.30;92.90;;;;;;5451896;26;19990;-41
2024/04/09 01:05:35;;;;;;;7.35;2.72;;;20.30;92.90;;;;;;5451634;26;20003;-41
2024/04/09 01:08:02;;;;;;;12.32;2.55;;;20.30;92.90;;;;;;5451667;26;19997;-42
2024/04/09 01:10:27;;;;;;;7.78;2.50;;;20.20;92.90;;;;;;5451548;26;20048;-45
2024/04/09 01:12:53;;;;;;;9.38;2.80;;;20.20;93.30;;;;;;5451785;26;20007;-44
2024/04/09 01:15:19;;;;;;;12.20;3.08;;;20.20;92.90;;;;;;5451632;26;19995;-43
2024/04/09 01:17:44;;;;;;;9.82;2.38;;;20.30;92.90;;;;;;5450613;26;20003;-43
2024/04/09 01:20:13;;;;;;;9.15;2.60;;;20.30;93.00;;;;;;5451288;26;20031;-44
2024/04/09 01:22:42;;;;;;;9.88;2.53;;;20.20;92.90;;;;;;5451508;26;20505;-42
2024/04/09 01:25:10;;;;;;;13.48;3.10;;;20.30;93.00;;;;;;5451373;26;20448;-42
2024/04/09 01:27:38;;;;;;;11.82;2.58;;;20.20;93.00;;;;;;5451299;26;20304;-42
2024/04/09 01:30:08;;;;;;;8.32;2.42;;;20.20;93.00;;;;;;5451231;26;20448;-42
2024/04/09 01:32:36;;;;;;;11.52;2.50;;;20.20;93.00;;;;;;5451337;26;20071;-42
2024/04/09 01:35:06;;;;;;;6.85;2.47;;;20.20;93.30;;;;;;5451392;26;20013;-42
2024/04/09 01:37:38;;;;;;;10.32;2.40;;;20.20;93.00;;;;;;5451204;26;20343;-41
2024/04/09 01:40:04;;;;;;;13.32;2.47;;;20.20;93.00;;;;;;5451597;26;20009;-41
2024/04/09 01:42:30;;;;;;;10.75;2.60;;;20.20;93.00;;;;;;5451505;26;20007;-42
2024/04/09 01:44:55;;;;;;;8.85;2.65;;;20.20;93.00;;;;;;5451133;26;20393;-41
2024/04/09 01:47:21;;;;;;;10.57;2.55;;;20.20;93.00;;;;;;5450804;26;19998;-41
2024/04/09 01:49:47;;;;;;;9.18;2.55;;;20.20;93.00;;;;;;5450990;26;20004;-42
2024/04/09 01:52:14;;;;;;;8.82;2.55;;;20.20;93.00;;;;;;5451072;26;19995;-42
2024/04/09 01:54:44;;;;;;;10.02;2.72;;;20.20;93.00;;;;;;5450971;26;20009;-41
2024/04/09 01:57:10;;;;;;;10.23;2.10;;;20.20;93.00;;;;;;5450896;26;19998;-41
2024/04/09 01:59:36;;;;;;;7.95;2.58;;;20.20;93.00;;;;;;5450431;26;19995;-40
2024/04/09 02:02:02;;;;;;;6.95;2.50;;;20.20;93.00;;;;;;5450695;26;20067;-42
2024/04/09 02:04:27;;;;;;;8.88;2.63;;;20.20;93.10;;;;;;5450836;26;20010;-40
2024/04/09 02:06:53;;;;;;;12.25;2.47;;;20.20;93.10;;;;;;5450593;26;20010;-41
2024/04/09 02:09:19;;;;;;;11.23;2.80;;;20.20;93.10;;;;;;5450905;26;19995;-40
2024/04/09 02:11:45;;;;;;;11.07;2.92;;;20.20;93.10;;;;;;5450754;26;20107;-41
2024/04/09 02:14:10;;;;;;;10.30;2.38;;;20.20;93.10;;;;;;5450715;26;20071;-40
2024/04/09 02:16:36;;;;;;;8.13;2.60;;;20.20;93.10;;;;;;5450664;26;20010;-42
2024/04/09 02:19:03;;;;;;;10.98;2.83;;;20.20;93.10;;;;;;5450508;26;20003;-42
2024/04/09 02:21:31;;;;;;;12.10;2.70;;;20.20;93.10;;;;;;5450275;26;20023;-41
2024/04/09 02:23:56;;;;;;;12.40;3.10;;;20.20;93.10;;;;;;5450775;26;20013;-42
2024/04/09 02:26:23;;;;;;;9.05;2.17;;;20.20;93.10;;;;;;5450436;26;20455;-41
2024/04/09 02:28:50;;;;;;;11.20;2.60;;;20.10;93.00;;;;;;5451592;26;20030;-41
2024/04/09 02:31:16;;;;;;;12.25;2.40;;;20.20;93.10;;;;;;5482587;26;20007;-41
2024/04/09 02:33:42;;;;;;;14.02;3.05;;;20.20;93.10;;;;;;5454047;26;20455;-41
2024/04/09 02:36:09;;;;;;;8.10;2.50;;;20.20;93.10;;;;;;5453744;26;20333;-41
2024/04/09 02:38:36;;;;;;;9.65;3.08;;;20.20;93.10;;;;;;5453762;26;19995;-44
2024/04/09 02:41:08;;;;;;;9.10;2.58;;;20.10;93.00;;;;;;5482361;26;19995;-42
2024/04/09 02:43:35;;;;;;;7.25;2.50;;;20.20;93.40;;;;;;5453920;26;20060;-40
2024/04/09 02:46:01;;;;;;;7.03;2.08;;;20.20;93.10;;;;;;5453939;26;19998;-43
2024/04/09 02:48:28;;;;;;;8.88;2.38;;;20.10;93.10;;;;;;5453800;26;19999;-42
2024/04/09 02:50:59;;;;;;;6.57;2.53;;;20.10;93.10;;;;;;5453486;26;20009;-41
2024/04/09 02:53:25;;;;;;;8.48;2.42;;;20.10;93.10;;;;;;5453678;26;20003;-40
2024/04/09 02:56:02;;;;;;;12.65;2.85;;;20.10;93.10;;;;;;5453773;26;19994;-42
2024/04/09 02:58:27;;;;;;;10.60;2.88;;;20.10;93.10;;;;;;5453595;26;20007;-41
2024/04/09 03:00:54;;;;;;;9.70;2.40;;;20.10;93.10;;;;;;5453222;26;20028;-42
2024/04/09 03:03:20;;;;;;;11.10;2.88;;;20.10;93.10;;;;;;5453625;26;20006;-44
2024/04/09 03:05:45;;;;;;;11.68;2.80;;;20.10;93.10;;;;;;5453524;26;20023;-40
2024/04/09 03:08:11;;;;;;;9.13;2.20;;;20.10;93.10;;;;;;5453349;26;20010;-41
2024/04/09 03:10:36;;;;;;;9.45;2.40;;;20.10;93.10;;;;;;5453365;26;19999;-42
2024/04/09 03:13:03;;;;;;;6.45;2.00;;;20.10;93.10;;;;;;5453591;26;20009;-41
2024/04/09 03:15:30;;;;;;;9.60;2.40;;;20.10;93.10;;;;;;5453337;26;19991;-43
2024/04/09 03:17:56;;;;;;;10.57;3.05;;;20.10;93.10;;;;;;5453223;26;20382;-40
2024/04/09 03:20:21;;;;;;;10.55;2.90;;;20.10;93.50;;;;;;5453260;26;20025;-41
2024/04/09 03:22:47;;;;;;;10.48;2.80;;;20.10;93.10;;;;;;5453344;26;19994;-41
2024/04/09 03:25:13;;;;;;;9.20;2.75;;;20.10;93.10;;;;;;5453263;26;20147;-44
2024/04/09 03:27:38;;;;;;;8.20;2.50;;;20.10;93.10;;;;;;5453200;26;20456;-40
2024/04/09 03:30:04;;;;;;;11.20;2.50;;;20.10;93.10;;;;;;5453051;26;20003;-42
2024/04/09 03:32:31;;;;;;;10.88;2.67;;;20.10;93.10;;;;;;5453194;26;20009;-41
2024/04/09 03:34:57;;;;;;;10.60;2.42;;;20.00;93.10;;;;;;5453220;26;19995;-42
2024/04/09 03:37:23;;;;;;;10.13;2.40;;;20.10;93.10;;;;;;5452988;26;20085;-40
2024/04/09 03:39:48;;;;;;;7.85;1.92;;;20.10;93.10;;;;;;5452438;26;20007;-41
2024/04/09 03:42:14;;;;;;;15.02;2.83;;;20.10;93.10;;;;;;5453243;26;20007;-41
2024/04/09 03:44:40;;;;;;;12.07;2.55;;;20.10;93.10;;;;;;5453064;26;19995;-42
2024/04/09 03:47:05;;;;;;;10.52;2.40;;;20.10;93.10;;;;;;5453008;26;20332;-40
2024/04/09 03:49:33;;;;;;;9.77;2.50;;;20.00;93.10;;;;;;5452894;26;20486;-44
2024/04/09 03:51:59;;;;;;;7.43;2.35;;;20.00;93.10;;;;;;5453026;26;20092;-40
2024/04/09 03:54:24;;;;;;;11.23;2.70;;;20.00;93.20;;;;;;5452949;26;19994;-42
2024/04/09 03:56:50;;;;;;;8.70;2.70;;;20.00;93.10;;;;;;5452872;26;19990;-42
2024/04/09 03:59:16;;;;;;;12.40;2.88;;;20.00;93.10;;;;;;5452693;26;19999;-41
2024/04/09 04:01:42;;;;;;;8.35;2.42;;;20.00;93.20;;;;;;5452738;26;19991;-40
2024/04/09 04:04:07;;;;;;;11.93;2.60;;;20.00;93.20;;;;;;5453119;26;20031;-41
2024/04/09 04:06:33;;;;;;;9.70;2.67;;;20.00;93.20;;;;;;5450947;26;19994;-41
2024/04/09 04:08:59;;;;;;;9.65;2.85;;;20.00;93.20;;;;;;5452605;26;20332;-41
2024/04/09 04:11:24;;;;;;;12.77;2.45;;;20.00;93.20;;;;;;5452513;26;19995;-42
2024/04/09 04:13:50;;;;;;;8.43;2.40;;;20.00;93.20;;;;;;5452425;26;20047;-46
2024/04/09 04:16:16;;;;;;;8.55;2.38;;;20.00;93.20;;;;;;5452770;26;20343;-44
2024/04/09 04:18:44;;;;;;;9.57;2.58;;;20.00;93.20;;;;;;5452526;26;20010;-43
2024/04/09 04:21:14;;;;;;;12.50;3.03;;;20.00;93.30;;;;;;5480975;26;19999;-42
2024/04/09 04:23:44;;;;;;;8.55;2.60;;;20.00;93.30;;;;;;5452603;26;20006;-40
2024/04/09 04:26:17;;;;;;;8.45;2.15;;;19.90;93.30;;;;;;5452235;26;19994;-41
2024/04/09 04:28:44;;;;;;;10.85;2.78;;;19.90;93.30;;;;;;5452219;26;19999;-44
2024/04/09 04:31:12;;;;;;;8.45;2.53;;;19.90;93.30;;;;;;5452559;26;19999;-42
2024/04/09 04:33:38;;;;;;;9.52;2.50;;;19.90;93.30;;;;;;5452653;26;19998;-41
2024/04/09 04:36:05;;;;;;;10.30;2.85;;;19.90;93.30;;;;;;5452337;26;20031;-43
2024/04/09 04:38:31;;;;;;;9.43;2.55;;;19.90;93.30;;;;;;5452181;26;20525;-42
2024/04/09 04:40:57;;;;;;;10.60;2.40;;;19.90;93.40;;;;;;5451905;26;20003;-42
2024/04/09 04:43:23;;;;;;;10.23;2.65;;;19.90;93.30;;;;;;5452270;26;19999;-44
2024/04/09 04:45:49;;;;;;;8.45;2.42;;;19.90;93.40;;;;;;5452136;26;20003;-42
2024/04/09 04:48:16;;;;;;;10.20;2.45;;;19.90;93.40;;;;;;5452053;26;20072;-41
2024/04/09 04:50:43;;;;;;;10.63;2.80;;;19.90;93.40;;;;;;5451073;26;20007;-44
2024/04/09 04:53:08;;;;;;;6.07;2.30;;;19.90;93.40;;;;;;5451731;26;19999;-41
2024/04/09 04:55:35;;;;;;;8.68;2.40;;;19.90;93.40;;;;;;5452092;26;20018;-43
2024/04/09 04:58:02;;;;;;;7.32;2.75;;;19.90;93.40;;;;;;5451817;26;20007;-42
2024/04/09 05:00:28;;;;;;;11.73;3.08;;;19.90;93.40;;;;;;5451585;26;20034;-42
2024/04/09 05:02:54;;;;;;;11.13;2.45;;;19.90;93.40;;;;;;5451797;26;20006;-42
2024/04/09 05:05:20;;;;;;;11.88;3.38;;;19.80;93.40;;;;;;5451658;26;20009;-40
2024/04/09 05:07:47;;;;;;;11.30;2.63;;;19.80;93.40;;;;;;5452006;26;20005;-41
2024/04/09 05:10:13;;;;;;;10.63;2.83;;;19.80;93.40;;;;;;5451649;26;20340;-41
2024/04/09 05:12:51;;;;;;;7.30;2.50;;;19.80;93.40;;;;;;5451773;26;20005;-43
2024/04/09 05:15:18;;;;;;;12.07;2.67;;;19.80;93.50;;;;;;5452185;26;20018;-40
2024/04/09 05:17:44;;;;;;;9.70;2.25;;;19.80;93.50;;;;;;5451679;26;20015;-40
2024/04/09 05:20:11;;;;;;;7.05;2.70;;;19.80;93.50;;;;;;5451376;26;20006;-44
2024/04/09 05:22:36;;;;;;;6.97;2.30;;;19.80;93.50;;;;;;5451719;26;20027;-41
2024/04/09 05:25:02;;;;;;;9.10;2.58;;;19.80;93.50;;;;;;5451529;26;20459;-42
2024/04/09 05:27:28;;;;;;;7.72;2.30;;;19.80;93.50;;;;;;5451364;26;20408;-40
2024/04/09 05:29:54;;;;;;;10.70;2.53;;;19.80;93.50;;;;;;5451267;26;19991;-42
2024/04/09 05:32:19;;;;;;;10.93;2.78;;;19.80;93.50;;;;;;5451450;26;20010;-42
2024/04/09 05:34:45;;;;;;;10.90;2.58;;;19.80;93.50;;;;;;5451277;26;20006;-42
2024/04/09 05:37:11;;;;;;;7.00;2.40;;;19.80;93.60;;;;;;5451339;26;20019;-40
2024/04/09 05:39:36;;;;;;;8.82;2.20;;;19.80;93.60;;;;;;5451170;26;20006;-43
2024/04/09 05:42:02;;;;;;;9.40;2.80;;;19.70;93.60;;;;;;5451065;26;19994;-42
2024/04/09 05:44:28;;;;;;;5.68;2.17;;;19.70;93.60;;;;;;5451006;26;19995;-40
2024/04/09 05:46:53;;;;;;;6.57;2.28;;;19.70;93.60;;;;;;5451100;26;20035;-40
2024/04/09 05:49:21;;;;;;;9.32;2.20;;;19.70;93.60;;;;;;5450961;26;19999;-44
2024/04/09 05:51:47;;;;;;;7.88;2.22;;;19.70;93.60;;;;;;5450937;26;20005;-42
2024/04/09 05:54:15;;;;;;;6.45;2.10;;;19.70;93.60;;;;;;5451095;26;19995;-41
2024/04/09 05:56:41;;;;;;;7.68;2.33;;;19.70;93.60;;;;;;5450999;26;20006;-41
2024/04/09 05:59:07;;;;;;;7.70;2.40;;;19.70;93.60;;;;;;5450797;26;20001;-42
2024/04/09 06:01:32;;;;;;;8.57;2.45;;;19.70;93.60;;;;;;5450807;26;20009;-40
2024/04/09 06:03:58;;;;;;;9.05;2.55;;;19.70;93.60;;;;;;5453924;26;19999;-40
2024/04/09 06:06:24;;;;;;;6.25;1.95;;;19.70;93.60;;;;;;5482977;26;20336;-40
2024/04/09 06:08:49;;;;;;;7.80;2.30;;;19.80;93.60;;;;;;5454427;26;19995;-42
2024/04/09 06:11:15;;;;;;;6.72;2.08;;;19.80;93.60;;;;;;5454255;26;19999;-42
2024/04/09 06:13:40;;;;;;;9.27;2.00;;;19.80;93.60;;;;;;5454221;26;20003;-41
2024/04/09 06:16:07;;;;;;;7.32;2.22;;;19.80;93.60;;;;;;5454137;26;20010;-41
2024/04/09 06:18:33;;;;;;;7.22;2.25;;;19.80;93.60;;;;;;5454139;26;20070;-44
2024/04/09 06:20:59;;;;;;;7.82;2.10;;;19.70;93.60;;;;;;5453961;26;19999;-41
2024/04/09 06:23:24;;;;;;;9.93;2.42;;;19.80;93.60;;;;;;5454201;26;20770;-41
2024/04/09 06:25:58;;;;;;;8.88;2.17;;;19.70;93.60;;;;;;5454123;26;19990;-41
2024/04/09 06:28:24;;;;;;;8.63;2.42;;;19.80;93.60;;;;;;5453980;26;20480;-42
2024/04/09 06:30:49;;;;;;;7.30;1.88;;;19.80;93.60;;;;;;5454090;26;19999;-44
2024/04/09 06:33:15;;;;;;;7.22;2.28;;;19.80;93.60;;;;;;5454050;26;20009;-42
2024/04/09 06:35:40;;;;;;;5.82;1.90;;;19.80;93.60;;;;;;5454081;26;20005;-41
2024/04/09 06:38:06;;;;;;;6.70;2.20;;;19.80;93.60;;;;;;5453858;26;20433;-42
2024/04/09 06:40:34;;;;;;;8.88;2.13;;;19.70;93.70;;;;;;5453655;26;20317;-42
2024/04/09 06:43:00;;;;;;;5.93;1.65;;;19.80;93.70;;;;;;5453973;26;19999;-43
2024/04/09 06:45:25;;;;;;;7.35;2.13;;;19.80;93.70;;;;;;5453876;26;19999;-44
2024/04/09 06:47:51;;;;;;;7.05;2.10;;;19.80;93.70;;;;;;5453952;26;20003;-42
2024/04/09 06:50:16;;;;;;;6.93;2.25;;;19.80;93.70;;;;;;5453743;26;20006;-42
2024/04/09 06:52:42;;;;;;;7.75;2.05;;;19.80;93.70;;;;;;5453780;26;20009;-41
2024/04/09 06:55:09;;;;;;;7.22;1.85;;;19.80;93.70;;;;;;5453650;26;19994;-42
2024/04/09 06:57:35;;;;;;;4.03;1.52;;;19.80;93.70;;;;;;5453601;26;20010;-42
2024/04/09 07:00:01;;;;;;;3.78;1.80;;;19.80;93.70;;;;;;5453586;26;19995;-45
2024/04/09 07:02:27;;;;;;;8.15;1.95;;;19.80;93.70;;;;;;5453584;26;20440;-43
2024/04/09 07:04:52;;;;;;;8.10;2.13;;;19.80;93.70;;;;;;5453609;26;19991;-40
2024/04/09 07:07:18;;;;;;;7.00;2.03;;;19.80;93.70;;;;;;5453526;26;20006;-42
2024/04/09 07:09:43;;;;;;;6.80;1.80;;;19.80;93.70;;;;;;5453622;26;19995;-40
2024/04/09 07:12:09;;;;;;;4.28;1.85;;;19.80;93.70;;;;;;5453405;26;20010;-40
2024/04/09 07:14:35;;;;;;;3.03;1.52;;;19.80;93.70;;;;;;5452484;26;19995;-41
2024/04/09 07:17:01;;;;;;;6.00;1.80;;;19.80;93.70;;;;;;5453362;26;19998;-42
2024/04/09 07:19:27;;;;;;;5.10;1.90;;;19.80;93.70;;;;;;5453337;26;20524;-42
2024/04/09 07:21:52;;;;;;;6.60;1.65;;;19.80;93.70;;;;;;5453241;26;19995;-44
2024/04/09 07:24:18;;;;;;;5.72;1.92;;;19.80;93.70;;;;;;5453202;26;20389;-40
2024/04/09 07:26:44;;;;;;;7.30;1.52;;;19.80;93.60;;;;;;5453434;26;20328;-42
2024/04/09 07:29:09;;;;;;;5.78;1.60;;;19.80;93.70;;;;;;5453203;26;20003;-41
2024/04/09 07:31:36;;;;;;;6.75;1.63;;;19.80;93.60;;;;;;5453011;26;20006;-42
2024/04/09 07:34:02;;;;;;;6.20;1.58;;;19.80;93.60;;;;;;5453459;26;20513;-41
2024/04/09 07:36:28;;;;;;;6.88;1.73;;;19.80;93.60;;;;;;5453109;26;20007;-42
2024/04/09 07:38:55;;;;;;;5.63;1.85;;;19.80;93.60;;;;;;5453496;26;19999;-44
2024/04/09 07:41:22;;;;;;;9.38;1.83;;;19.80;93.60;;;;;;5452953;26;20003;-40
2024/04/09 07:43:49;;;;;;;5.07;1.60;;;19.80;93.70;;;;;;5453154;26;20007;-40
2024/04/09 07:46:14;;;;;;;12.13;1.92;;;19.80;93.70;;;;;;5452787;26;20352;-44
2024/04/09 07:48:40;;;;;;;4.13;1.48;;;19.80;93.70;;;;;;5452961;26;20003;-40
2024/04/09 07:51:06;;;;;;;4.28;1.60;;;19.80;93.70;;;;;;5453051;26;19998;-42
2024/04/09 07:53:31;;;;;;;5.65;1.45;;;19.70;93.70;;;;;;5452882;26;19999;-42
2024/04/09 07:55:57;;;;;;;4.53;1.30;;;19.70;93.70;;;;;;5481518;26;19995;-42
2024/04/09 07:58:23;;;;;;;3.88;1.23;;;19.70;93.70;;;;;;5452770;26;20067;-40
2024/04/09 08:00:50;;;;;;;4.07;1.35;;;19.70;93.70;;;;;;5452558;26;20010;-40
2024/04/09 08:03:16;;;;;;;4.13;1.13;;;19.70;93.70;;;;;;5452837;26;20397;-41
2024/04/09 08:05:42;;;;;;;4.25;1.40;;;19.70;93.60;;;;;;5452693;26;20002;-40
2024/04/09 08:08:09;;;;;;;5.03;1.80;;;19.70;93.60;;;;;;5452486;26;19998;-42
2024/04/09 08:10:35;;;;;;;4.72;1.60;;;19.70;93.60;;;;;;5446746;26;20010;-42
2024/04/09 08:13:01;;;;;;;4.15;1.30;;;19.70;93.50;;;;;;5430259;26;20002;-44
2024/04/09 08:15:27;;;;;;;4.82;1.08;;;19.60;93.50;;;;;;5438851;26;20013;-41
2024/04/09 08:17:53;;;;;;;3.22;1.25;;;19.60;93.50;;;;;;5428904;26;20006;-43
2024/04/09 08:20:20;;;;;;;3.45;1.45;;;19.60;93.40;;;;;;5429784;26;19995;-41
2024/04/09 08:22:49;;;;;;;4.05;1.17;;;19.60;93.80;;;;;;5434679;26;19999;-41
2024/04/09 08:25:16;;;;;;;6.70;1.27;;;19.60;93.40;;;;;;5431378;26;19999;-42
2024/04/09 08:27:42;;;;;;;3.63;1.10;;;19.60;93.40;;;;;;5430066;26;19999;-41
2024/04/09 08:30:17;;;;;;;5.75;1.20;;;19.50;93.30;;;;;;5443556;26;20345;-42
2024/04/09 08:32:44;;;;;;;3.33;1.17;;;19.60;93.30;;;;;;5428071;26;20010;-43
2024/04/09 08:35:13;;;;;;;3.75;1.20;;;19.60;93.30;;;;;;5434752;26;20041;-40
2024/04/09 08:37:42;;;;;;;2.28;0.88;;;19.60;93.30;;;;;;5438536;26;20049;-42
2024/04/09 08:40:10;;;;;;;3.60;1.00;;;19.50;93.20;;;;;;5433094;26;20003;-41
2024/04/09 08:42:39;;;;;;;3.83;0.88;;;19.50;93.20;;;;;;5445804;26;20009;-40
2024/04/09 08:45:08;;;;;;;2.55;0.93;;;19.50;93.20;;;;;;5452129;26;19995;-41
2024/04/09 08:47:34;;;;;;;2.75;1.02;;;19.50;93.20;;;;;;5429083;26;20000;-42
2024/04/09 08:50:03;;;;;;;1.08;0.70;;;19.50;93.20;;;;;;5415937;26;20448;-42
2024/04/09 08:52:29;;;;;;;1.65;0.68;;;19.50;93.10;;;;;;5434316;26;19999;-43
2024/04/09 08:54:55;;;;;;;2.95;1.00;;;19.50;93.20;;;;;;5424863;26;20036;-42
2024/04/09 08:57:21;;;;;;;3.30;0.90;;;19.50;93.10;;;;;;5421363;26;20015;-42
2024/04/09 08:59:47;;;;;;;2.28;0.65;;;19.50;93.10;;;;;;5444304;26;19999;-44
2024/04/09 09:02:14;;;;;;;2.63;0.73;;;19.40;93.10;;;;;;5428817;26;20078;-42
2024/04/09 09:04:41;;;;;;;1.40;0.80;;;19.40;93.50;;;;;;5434305;26;20044;-42
2024/04/09 09:07:18;;;;;;;2.78;0.90;;;19.40;93.10;;;;;;5432421;26;20007;-43
2024/04/09 09:09:44;;;;;;;1.90;0.75;;;19.40;93.10;;;;;;5436181;26;20004;-41
2024/04/09 09:12:10;;;;;;;1.65;0.70;;;19.40;93.10;;;;;;5435025;26;20076;-43
2024/04/09 09:14:37;;;;;;;1.73;0.70;;;19.40;93.10;;;;;;5446449;26;19998;-42
2024/04/09 09:17:09;;;;;;;1.67;0.80;;;19.40;93.00;;;;;;5424398;26;20003;-42
2024/04/09 09:19:36;;;;;;;1.60;0.73;;;19.40;93.00;;;;;;5432543;26;19998;-44
2024/04/09 09:22:06;;;;;;;2.95;0.50;;;19.40;93.00;;;;;;5444877;26;19999;-41
2024/04/09 09:24:32;;;;;;;1.92;0.57;;;19.40;93.00;;;;;;5431233;26;19996;-43
2024/04/09 09:27:02;;;;;;;1.40;0.60;;;19.40;93.40;;;;;;5429343;26;20376;-41
2024/04/09 09:29:31;;;;;;;1.50;0.70;;;19.40;92.90;;;;;;5441082;26;20024;-42
2024/04/09 09:31:57;;;;;;;1.67;0.60;;;19.40;92.90;;;;;;5426375;26;19999;-42
2024/04/09 09:34:40;;;;;;;1.20;0.63;;;19.40;93.00;;;;;;5447788;26;20006;-42
2024/04/09 09:37:07;;;;;;;2.08;0.70;;;19.40;92.90;;;;;;5418166;26;20007;-41
2024/04/09 09:39:39;;;;;;;2.50;0.50;;;19.40;92.90;;;;;;5431983;26;20448;-41
2024/04/09 09:42:05;;;;;;;1.10;0.50;;;19.40;92.90;;;;;;5437173;26;20000;-42
2024/04/09 09:44:35;;;;;;;1.70;0.60;;;19.40;92.90;;;;;;5431002;26;20048;-40
2024/04/09 09:47:03;;;;;;;3.33;0.60;;;19.40;92.90;;;;;;5437774;26;20009;-40
2024/04/09 09:49:29;;;;;;;1.17;0.50;;;19.40;92.90;;;;;;5427120;26;20003;-43
2024/04/09 09:51:56;;;;;;;0.82;0.45;;;19.40;92.90;;;;;;5447585;26;20014;-42
2024/04/09 09:54:24;;;;;;;1.25;0.52;;;19.40;92.80;;;;;;5431968;26;20011;-44
2024/04/09 09:57:05;;;;;;;2.15;0.65;;;19.40;92.80;;;;;;5430647;26;20083;-41
2024/04/09 09:59:39;;;;;;;1.83;0.50;;;19.40;92.90;;;;;;5449675;26;20071;-42
2024/04/09 10:02:06;;;;;;;1.17;0.60;;;19.40;92.80;;;;;;5419994;26;20016;-43
2024/04/09 10:04:31;;;;;;;0.80;0.40;;;19.40;92.80;;;;;;5431705;26;20013;-42
2024/04/09 10:06:58;;;;;;;1.15;0.50;;;19.40;92.80;;;;;;5429815;26;20464;-41
2024/04/09 10:09:50;;;;;;;1.08;0.50;;;19.40;92.80;;;;;;5417967;26;20003;-40
2024/04/09 10:12:35;;;;;;;1.48;0.52;;;19.40;92.80;;;;;;5437115;26;20003;-42
2024/04/09 10:15:05;;;;;;;1.90;0.50;;;19.40;92.70;;;;;;5420912;26;20289;-42
2024/04/09 10:17:53;;;;;;;1.15;0.30;;;19.40;92.80;;;;;;5430788;26;20011;-41
2024/04/09 10:20:42;;;;;;;1.05;0.50;;;19.40;92.80;;;;;;5444677;26;20539;-41
2024/04/09 10:23:08;;;;;;;1.58;0.47;;;19.40;92.80;;;;;;5450695;26;20348;-43
2024/04/09 10:25:42;;;;;;;1.48;0.43;;;19.30;92.70;;;;;;5450259;26;20586;-41
2024/04/09 10:28:18;;;;;;;1.42;0.52;;;19.40;92.80;;;;;;5448520;26;20010;-41
2024/04/09 10:30:45;;;;;;;0.93;0.43;;;19.30;92.80;;;;;;5450436;26;20348;-42
2024/04/09 10:33:11;;;;;;;1.20;0.40;;;19.40;93.10;;;;;;5450537;26;19999;-42
2024/04/09 10:35:41;;;;;;;0.68;0.43;;;19.40;92.80;;;;;;5450426;26;19995;-41
2024/04/09 10:38:07;;;;;;;0.40;0.30;;;19.40;92.80;;;;;;5450010;26;20045;-44
2024/04/09 10:40:36;;;;;;;1.30;0.40;;;19.30;92.70;;;;;;5450128;26;20067;-42
2024/04/09 10:43:06;;;;;;;0.93;0.40;;;19.30;92.70;;;;;;5450286;26;19999;-41
2024/04/09 10:45:32;;;;;;;1.85;0.43;;;19.30;92.70;;;;;;5450074;26;20059;-42
2024/04/09 10:47:59;;;;;;;1.13;0.40;;;19.30;92.70;;;;;;5450111;26;19995;-42
2024/04/09 10:50:25;;;;;;;0.80;0.47;;;19.30;92.70;;;;;;5452208;26;20382;-42
2024/04/09 10:52:51;;;;;;;1.15;0.57;;;19.30;92.70;;;;;;5453763;26;19991;-40
2024/04/09 10:55:17;;;;;;;0.90;0.40;;;19.30;92.70;;;;;;5453886;26;20006;-40
2024/04/09 10:57:49;;;;;;;0.98;0.30;;;19.30;92.70;;;;;;5453463;26;20003;-41
2024/04/09 11:00:16;;;;;;;1.27;0.40;;;19.30;92.70;;;;;;5453582;26;19999;-41
2024/04/09 11:02:43;;;;;;;0.55;0.30;;;19.40;92.70;;;;;;5453762;26;19998;-44
2024/04/09 11:05:10;;;;;;;2.00;0.40;;;19.40;92.70;;;;;;5453445;26;20022;-42
2024/04/09 11:07:41;;;;;;;0.32;0.20;;;19.30;92.60;;;;;;5453483;26;20022;-41
2024/04/09 11:10:12;;;;;;;0.32;0.20;;;19.40;92.60;;;;;;5453588;26;20480;-42
2024/04/09 11:12:45;;;;;;;0.63;0.40;;;19.30;92.60;;;;;;5453661;26;20006;-42
2024/04/09 11:15:11;;;;;;;0.40;0.17;;;19.30;92.60;;;;;;5452384;26;19995;-42
2024/04/09 11:17:39;;;;;;;0.57;0.30;;;19.30;92.50;;;;;;5453339;26;20335;-41
2024/04/09 11:20:15;;;;;;;0.73;0.30;;;19.30;92.50;;;;;;5453347;26;19999;-42
2024/04/09 11:22:41;;;;;;;0.70;0.20;;;19.30;92.40;;;;;;5453481;26;20008;-42
2024/04/09 11:25:22;;;;;;;0.50;0.30;;;19.30;92.50;;;;;;5453312;26;19995;-42
2024/04/09 11:27:50;;;;;;;2.92;0.40;;;19.30;92.50;;;;;;5453207;26;20093;-40
2024/04/09 11:30:28;;;;;;;0.38;0.17;;;19.20;92.50;;;;;;5453105;26;20006;-43
2024/04/09 11:32:55;;;;;;;1.00;0.30;;;19.20;92.50;;;;;;5453473;26;19999;-43
2024/04/09 11:35:25;;;;;;;0.10;0.10;;;19.20;92.50;;;;;;5453301;26;19995;-42
2024/04/09 11:37:56;;;;;;;0.40;0.30;;;19.20;92.50;;;;;;5453196;26;20002;-41
2024/04/09 11:40:23;;;;;;;0.50;0.20;;;19.20;92.50;;;;;;5453119;26;20003;-40
2024/04/09 11:42:50;;;;;;;1.20;0.30;;;19.20;92.50;;;;;;5452953;26;20030;-41
2024/04/09 11:45:23;;;;;;;1.13;0.30;;;19.20;92.50;;;;;;5453076;26;20509;-41
2024/04/09 11:47:50;;;;;;;0.65;0.28;;;19.20;92.50;;;;;;5453037;26;19995;-41
2024/04/09 11:50:16;;;;;;;0.80;0.25;;;19.20;92.60;;;;;;5452926;26;19994;-40
2024/04/09 11:52:42;;;;;;;0.68;0.32;;;19.20;92.60;;;;;;5452982;26;20005;-42
2024/04/09 11:55:11;;;;;;;1.27;0.40;;;19.20;92.90;;;;;;5452662;26;19995;-40
2024/04/09 11:57:37;;;;;;;1.25;0.30;;;19.10;92.60;;;;;;5452777;26;19995;-42
2024/04/09 12:00:04;;;;;;;0.38;0.20;;;19.10;92.60;;;;;;5452589;26;20064;-42
2024/04/09 12:02:30;;;;;;;0.98;0.30;;;19.10;92.60;;;;;;5452974;26;20013;-41
2024/04/09 12:04:56;;;;;;;0.95;0.32;;;19.10;92.60;;;;;;5453046;26;20020;-42
2024/04/09 12:07:22;;;;;;;0.63;0.30;;;19.10;92.60;;;;;;5451009;26;20456;-41
2024/04/09 12:09:48;;;;;;;0.68;0.30;;;19.10;92.60;;;;;;5452495;26;19999;-40
2024/04/09 12:12:13;;;;;;;0.75;0.20;;;19.10;92.60;;;;;;5452625;26;19994;-41
2024/04/09 12:14:39;;;;;;;0.47;0.30;;;19.10;92.60;;;;;;5450862;26;20011;-42
2024/04/09 12:17:05;;;;;;;1.17;0.40;;;19.10;92.60;;;;;;5452728;26;19999;-44
2024/04/09 12:19:32;;;;;;;0.88;0.30;;;19.10;92.50;;;;;;5452103;26;19998;-42
2024/04/09 12:21:59;;;;;;;1.30;0.35;;;19.00;92.50;;;;;;5452568;26;19998;-44
2024/04/09 12:24:29;;;;;;;0.50;0.20;;;19.10;92.60;;;;;;5452628;26;19998;-42
2024/04/09 12:26:56;;;;;;;0.60;0.30;;;19.10;92.60;;;;;;5452428;26;19994;-41
2024/04/09 12:29:22;;;;;;;0.80;0.40;;;19.00;92.60;;;;;;5452389;26;20009;-42
2024/04/09 12:31:48;;;;;;;1.42;0.40;;;19.00;92.60;;;;;;5452070;26;20151;-41
2024/04/09 12:34:15;;;;;;;0.77;0.30;;;19.00;92.60;;;;;;5452536;26;20002;-42
2024/04/09 12:36:40;;;;;;;0.20;0.20;;;19.00;92.60;;;;;;5452300;26;19994;-41
2024/04/09 12:39:06;;;;;;;0.50;0.20;;;19.00;92.60;;;;;;5452285;26;19995;-41
2024/04/09 12:41:32;;;;;;;0.95;0.30;;;19.00;92.60;;;;;;5452136;26;20070;-43
2024/04/09 12:43:57;;;;;;;0.50;0.20;;;19.00;92.60;;;;;;5452498;26;20002;-40
2024/04/09 12:46:24;;;;;;;0.28;0.20;;;19.00;92.60;;;;;;5452500;26;20004;-41